Corozal Las Brujas Airport

Current Flights

Departures
Number Departure To Airline
 EFY7765 10:05 +517  Medellin  Easyfly
 AV8445 11:27 +3  Bogota  Avianca
 VE7765 10:05  Medellin  Easyfly
 EFY7765 10:05  Medellin  Easyfly
 AV8445 11:27  Bogota  Avianca
 EFY7765 10:05  Medellin  Easyfly
 AV8445 11:27  Bogota  Avianca
Arrivals
Number Arrival From Airline
 EFY7764 09:45 +537  Medellin  Easyfly
 VE7764 09:45  Medellin  Easyfly
 AV8444 10:57  Bogota  Avianca
 EFY7764 09:45  Medellin  Easyfly
 VE7764 09:45  Medellin  Easyfly
 EFY7764 09:45  Medellin  Easyfly
Info
Name: Corozal Las Brujas Airport
Identifier:  CZU/SKCZ
Local Time:  19. Jun 18:41
City
Flights per Day
4 flights
Distance: 414km (257mi)
Punctuality
93% (0 flights per day delayed)
Delay Average: 46 minutes
Current Weather
 32 C (Humidity: 70%)
  5kt (9km/h / 5mph) from 90°
  Few clouds at 2,000 feet (609 meter)
  9km (5 mi.)
 METAR SKCZ 171500Z 09005KT 9000 FEW020 32/26 A2985 RMK HZ

Current Delays

Departures
N/A
Arrivals
N/A

Destinations

Top Destinations
Airport Flights
per week
Seats
per week
  Bogota (BOG) 14 1,400 2 200
  Medellin (EOH) 9 - 1 0

Airlines & Planes

Top Airlines
Airline Flights
per Day
Seats
per Day
  Avianca 2 200
  Easyfly 1 -
Top Plane Types
Model Flights Seats
Airbus A318 2.0/day 200/day 200
ATR 42-600 1.4/day - 0
Beech 1900D 0.0/day - 0